Aviation Digital Data Service (ADDS)

Output produced by METARs form (1659 UTC 01 July 2016)
found at http://www.aviationweather.gov/adds/metars/
 
KILG 011651Z 16008KT 10SM SCT023 SCT033 BKN042 27/21 A2994 RMK AO2 SLP136 T02670211 $
KILG 011507Z 0115/0212 19008KT P6SM SCT025 
     TEMPO 0115/0116 BKN017 
     FM011800 22010G18KT P6SM BKN050 
     TEMPO 0121/0124 VRB20G30KT 5SM -TSRA BKN040CB 
     FM020300 30005KT P6SM FEW040